Time;durP1;ratioP1;P1;durP2;ratioP2;P2;SDS_P1;SDS_P2;PMS_P1;PMS_P2;Temp;Humidity;BMP_temperature;BMP_pressure;BME280_temperature;BME280_humidity;BME280_pressure;Samples;Min_cycle;Max_cycle;Signal;HPM_P1;HPM_P2
2024/02/14 00:01:56;;;;;;;3.35;1.42;;;;;;;;;;5078685;28;20039;-60
2024/02/14 00:04:22;;;;;;;7.35;1.30;;;;;;;;;;5084168;28;20025;-62
2024/02/14 00:06:48;;;;;;;1.67;0.80;;;;;;;;;;5076130;28;20029;-60
2024/02/14 00:09:14;;;;;;;1.83;0.93;;;;;;;;;;5069824;28;20433;-61
2024/02/14 00:11:40;;;;;;;2.92;1.35;;;;;;;;;;5068067;28;20500;-62
2024/02/14 00:14:07;;;;;;;2.33;1.05;;;;;;;;;;5068998;28;20448;-61
2024/02/14 00:16:33;;;;;;;1.50;1.00;;;;;;;;;;5069371;28;20020;-62
2024/02/14 00:18:58;;;;;;;2.63;1.27;;;;;;;;;;5066916;28;20401;-60
2024/02/14 00:21:25;;;;;;;2.30;1.10;;;;;;;;;;5069507;28;20461;-60
2024/02/14 00:23:51;;;;;;;2.00;0.88;;;;;;;;;;5067904;28;20023;-62
2024/02/14 00:26:17;;;;;;;4.40;1.20;;;;;;;;;;5066727;28;20020;-62
2024/02/14 00:28:43;;;;;;;1.42;0.80;;;;;;;;;;5069935;28;20078;-62
2024/02/14 00:31:09;;;;;;;3.50;1.13;;;;;;;;;;5066063;28;20063;-62
2024/02/14 00:33:35;;;;;;;3.92;1.20;;;;;;;;;;5064369;28;20547;-60
2024/02/14 00:36:01;;;;;;;6.13;1.10;;;;;;;;;;5070663;28;20040;-61
2024/02/14 00:38:27;;;;;;;6.28;0.90;;;;;;;;;;5066938;28;20076;-61
2024/02/14 00:40:53;;;;;;;8.90;0.90;;;;;;;;;;5067997;28;20028;-62
2024/02/14 00:43:19;;;;;;;9.70;1.30;;;;;;;;;;5066883;28;20093;-61
2024/02/14 00:45:45;;;;;;;2.55;0.90;;;;;;;;;;5066160;28;20478;-62
2024/02/14 00:48:11;;;;;;;1.38;0.70;;;;;;;;;;5072434;28;20486;-61
2024/02/14 00:50:37;;;;;;;2.00;0.90;;;;;;;;;;5064179;28;20033;-62
2024/02/14 00:53:03;;;;;;;1.50;0.80;;;;;;;;;;5070927;28;20501;-62
2024/02/14 00:55:29;;;;;;;6.35;1.05;;;;;;;;;;5068216;28;20526;-63
2024/02/14 00:57:55;;;;;;;3.67;1.10;;;;;;;;;;5071715;28;20162;-61
2024/02/14 01:00:21;;;;;;;1.92;0.90;;;;;;;;;;5068986;28;20028;-62
2024/02/14 01:02:47;;;;;;;3.13;0.82;;;;;;;;;;5065543;28;20025;-59
2024/02/14 01:05:13;;;;;;;2.25;0.60;;;;;;;;;;5069011;28;20021;-61
2024/02/14 01:07:39;;;;;;;4.70;1.00;;;;;;;;;;5070172;28;20024;-62
2024/02/14 01:10:05;;;;;;;4.72;1.00;;;;;;;;;;5071201;28;20501;-62
2024/02/14 01:12:31;;;;;;;3.13;1.10;;;;;;;;;;5067835;28;20017;-63
2024/02/14 01:14:57;;;;;;;2.22;0.95;;;;;;;;;;5069055;28;20028;-62
2024/02/14 01:17:24;;;;;;;2.75;0.90;;;;;;;;;;5068768;28;20375;-62
2024/02/14 01:19:50;;;;;;;1.63;0.88;;;;;;;;;;5073704;28;20469;-61
2024/02/14 01:22:16;;;;;;;1.23;0.93;;;;;;;;;;5068264;28;20042;-60
2024/02/14 01:24:43;;;;;;;5.70;0.90;;;;;;;;;;5064731;28;20063;-63
2024/02/14 01:27:09;;;;;;;2.80;0.80;;;;;;;;;;5068153;28;20040;-61
2024/02/14 01:29:35;;;;;;;3.45;0.70;;;;;;;;;;5070381;28;20033;-62
2024/02/14 01:32:01;;;;;;;2.75;0.90;;;;;;;;;;5069053;28;20494;-62
2024/02/14 01:34:28;;;;;;;3.70;0.90;;;;;;;;;;5065631;28;20081;-62
2024/02/14 01:36:54;;;;;;;2.95;0.93;;;;;;;;;;5065380;28;20058;-62
2024/02/14 01:39:21;;;;;;;1.48;0.73;;;;;;;;;;5066805;28;20035;-62
2024/02/14 01:41:48;;;;;;;1.48;0.85;;;;;;;;;;5068512;28;20024;-60
2024/02/14 01:44:15;;;;;;;4.72;1.08;;;;;;;;;;5064847;28;20391;-61
2024/02/14 01:46:41;;;;;;;1.02;0.77;;;;;;;;;;5068133;28;20051;-61
2024/02/14 01:49:08;;;;;;;3.83;0.65;;;;;;;;;;5070707;28;20111;-60
2024/02/14 01:51:35;;;;;;;1.00;0.63;;;;;;;;;;5069560;28;20041;-62
2024/02/14 01:54:02;;;;;;;3.03;0.77;;;;;;;;;;5064537;28;20034;-62
2024/02/14 01:56:28;;;;;;;1.90;0.80;;;;;;;;;;5063790;28;20028;-62
2024/02/14 01:58:54;;;;;;;3.95;0.85;;;;;;;;;;5067895;28;20029;-62
2024/02/14 02:01:23;;;;;;;1.40;0.73;;;;;;;;;;5064457;28;20493;-63
2024/02/14 02:03:49;;;;;;;1.48;0.68;;;;;;;;;;5064144;28;20028;-64
2024/02/14 02:06:16;;;;;;;1.80;0.80;;;;;;;;;;5069426;28;20506;-63
2024/02/14 02:08:45;;;;;;;0.80;0.80;;;;;;;;;;5067533;28;20025;-63
2024/02/14 02:11:11;;;;;;;1.13;0.70;;;;;;;;;;5065169;28;20043;-63
2024/02/14 02:13:38;;;;;;;2.90;0.70;;;;;;;;;;5063913;28;20028;-63
2024/02/14 02:16:05;;;;;;;0.60;0.60;;;;;;;;;;5060546;28;20040;-62
2024/02/14 02:18:31;;;;;;;4.18;0.80;;;;;;;;;;5072114;28;20439;-62
2024/02/14 02:20:57;;;;;;;3.15;0.60;;;;;;;;;;5065285;28;20074;-63
2024/02/14 02:23:23;;;;;;;1.92;0.85;;;;;;;;;;5060384;28;20028;-61
2024/02/14 02:25:50;;;;;;;0.70;0.50;;;;;;;;;;5062662;28;20357;-63
2024/02/14 02:28:16;;;;;;;1.05;0.70;;;;;;;;;;5072249;28;20437;-61
2024/02/14 02:30:42;;;;;;;1.35;0.77;;;;;;;;;;5065017;28;20028;-63
2024/02/14 02:33:08;;;;;;;2.05;0.90;;;;;;;;;;5061706;28;20033;-61
2024/02/14 02:35:34;;;;;;;2.97;0.95;;;;;;;;;;5068549;28;20029;-62
2024/02/14 02:38:01;;;;;;;0.75;0.50;;;;;;;;;;5069569;28;20044;-61
2024/02/14 02:40:27;;;;;;;1.55;0.68;;;;;;;;;;5069442;28;20498;-63
2024/02/14 02:42:53;;;;;;;0.80;0.80;;;;;;;;;;5063804;28;20394;-60
2024/02/14 02:45:19;;;;;;;0.93;0.60;;;;;;;;;;5061683;28;20532;-62
2024/02/14 02:47:45;;;;;;;2.25;0.60;;;;;;;;;;5061685;28;20038;-62
2024/02/14 02:50:11;;;;;;;3.53;0.80;;;;;;;;;;5061188;28;20024;-63
2024/02/14 02:52:38;;;;;;;1.30;0.50;;;;;;;;;;5079270;28;20028;-63
2024/02/14 02:55:05;;;;;;;3.67;0.70;;;;;;;;;;5078374;28;20096;-63
2024/02/14 02:57:36;;;;;;;2.28;0.93;;;;;;;;;;5070999;28;20076;-61
2024/02/14 03:00:02;;;;;;;1.35;0.75;;;;;;;;;;5066900;28;20029;-63
2024/02/14 03:02:28;;;;;;;0.95;0.80;;;;;;;;;;5066935;28;20082;-63
2024/02/14 03:04:54;;;;;;;2.22;0.80;;;;;;;;;;5060800;28;20028;-57
2024/02/14 03:07:20;;;;;;;3.67;0.98;;;;;;;;;;5065041;28;20029;-63
2024/02/14 03:09:46;;;;;;;1.52;0.90;;;;;;;;;;5061235;28;20031;-61
2024/02/14 03:12:16;;;;;;;4.05;0.82;;;;;;;;;;5068169;28;20410;-61
2024/02/14 03:14:43;;;;;;;1.30;0.73;;;;;;;;;;5070071;28;20052;-61
2024/02/14 03:17:10;;;;;;;1.30;0.80;;;;;;;;;;5069251;28;20505;-63
2024/02/14 03:19:38;;;;;;;3.40;0.88;;;;;;;;;;5073574;28;20103;-60
2024/02/14 03:22:05;;;;;;;1.08;0.80;;;;;;;;;;5067851;28;20059;-63
2024/02/14 03:24:35;;;;;;;2.38;0.90;;;;;;;;;;5069107;28;20042;-62
2024/02/14 03:27:01;;;;;;;1.42;0.70;;;;;;;;;;5070272;28;20104;-63
2024/02/14 03:29:27;;;;;;;2.08;0.70;;;;;;;;;;5067615;28;20125;-61
2024/02/14 03:31:53;;;;;;;2.42;0.85;;;;;;;;;;5067190;28;20029;-61
2024/02/14 03:34:19;;;;;;;1.48;0.85;;;;;;;;;;5069529;28;20020;-62
2024/02/14 03:36:45;;;;;;;2.95;0.95;;;;;;;;;;5070037;28;20028;-63
2024/02/14 03:39:11;;;;;;;3.08;0.82;;;;;;;;;;5071006;28;20078;-63
2024/02/14 03:41:37;;;;;;;2.20;0.75;;;;;;;;;;5066025;28;20017;-62
2024/02/14 03:44:03;;;;;;;3.78;0.93;;;;;;;;;;5059945;28;20029;-62
2024/02/14 03:46:30;;;;;;;1.27;0.80;;;;;;;;;;5069604;28;20077;-62
2024/02/14 03:48:56;;;;;;;1.33;0.75;;;;;;;;;;5068202;28;20112;-61
2024/02/14 03:51:25;;;;;;;1.38;0.65;;;;;;;;;;5071243;28;20052;-61
2024/02/14 03:53:51;;;;;;;1.35;0.70;;;;;;;;;;5070732;28;20036;-61
2024/02/14 03:56:17;;;;;;;3.83;0.80;;;;;;;;;;5048671;28;20705;-62
2024/02/14 03:58:43;;;;;;;1.98;0.73;;;;;;;;;;5066388;28;20056;-62
2024/02/14 04:01:09;;;;;;;1.48;0.80;;;;;;;;;;5066779;28;20028;-60
2024/02/14 04:03:35;;;;;;;3.80;0.80;;;;;;;;;;5071603;28;20448;-63
2024/02/14 04:06:01;;;;;;;0.90;0.70;;;;;;;;;;5065189;28;20036;-61
2024/02/14 04:08:29;;;;;;;0.90;0.80;;;;;;;;;;5071517;28;20024;-62
2024/02/14 04:10:55;;;;;;;1.88;0.80;;;;;;;;;;5070408;28;20448;-62
2024/02/14 04:13:22;;;;;;;1.15;0.60;;;;;;;;;;5067254;28;20116;-63
2024/02/14 04:15:48;;;;;;;2.08;0.95;;;;;;;;;;5067528;28;20027;-63
2024/02/14 04:18:15;;;;;;;1.83;0.63;;;;;;;;;;5069453;28;20020;-63
2024/02/14 04:20:42;;;;;;;3.38;0.90;;;;;;;;;;5072424;28;20504;-63
2024/02/14 04:23:08;;;;;;;1.58;0.90;;;;;;;;;;5064787;28;20028;-63
2024/02/14 04:25:34;;;;;;;0.77;0.70;;;;;;;;;;5071076;28;20462;-63
2024/02/14 04:28:00;;;;;;;3.85;0.90;;;;;;;;;;5070615;28;20405;-62
2024/02/14 04:30:27;;;;;;;0.90;0.80;;;;;;;;;;5067998;28;20054;-63
2024/02/14 04:32:53;;;;;;;1.17;0.70;;;;;;;;;;5069327;28;20028;-62
2024/02/14 04:35:22;;;;;;;2.25;1.17;;;;;;;;;;5067443;28;20037;-63
2024/02/14 04:37:49;;;;;;;1.80;0.93;;;;;;;;;;5068662;28;20050;-62
2024/02/14 04:40:15;;;;;;;1.00;0.80;;;;;;;;;;5069207;28;20051;-63
2024/02/14 04:42:42;;;;;;;3.90;1.13;;;;;;;;;;5067763;28;20021;-62
2024/02/14 04:45:08;;;;;;;1.65;0.90;;;;;;;;;;5068664;28;20092;-63
2024/02/14 04:47:34;;;;;;;1.45;0.95;;;;;;;;;;5067152;28;20151;-61
2024/02/14 04:50:00;;;;;;;4.25;1.15;;;;;;;;;;5046989;28;20093;-62
2024/02/14 04:52:27;;;;;;;4.53;0.98;;;;;;;;;;5068002;28;20029;-63
2024/02/14 04:54:53;;;;;;;1.70;1.00;;;;;;;;;;5062712;28;20024;-62
2024/02/14 04:57:20;;;;;;;1.50;1.00;;;;;;;;;;5067325;28;20466;-63
2024/02/14 04:59:45;;;;;;;1.85;1.00;;;;;;;;;;5066397;28;20020;-63
2024/02/14 05:02:11;;;;;;;1.42;0.80;;;;;;;;;;5064235;28;20481;-62
2024/02/14 05:04:39;;;;;;;2.05;1.00;;;;;;;;;;5071722;28;20024;-60
2024/02/14 05:07:05;;;;;;;2.00;0.80;;;;;;;;;;5063912;28;20032;-62
2024/02/14 05:09:31;;;;;;;1.40;0.90;;;;;;;;;;5073762;28;20017;-63
2024/02/14 05:11:57;;;;;;;2.97;0.68;;;;;;;;;;5069953;28;20513;-61
2024/02/14 05:14:23;;;;;;;2.45;0.88;;;;;;;;;;5059751;28;20031;-63
2024/02/14 05:16:49;;;;;;;1.55;1.00;;;;;;;;;;5065007;28;20171;-63
2024/02/14 05:19:15;;;;;;;7.75;1.10;;;;;;;;;;5065918;28;20116;-63
2024/02/14 05:21:41;;;;;;;2.38;1.08;;;;;;;;;;5066288;28;20451;-61
2024/02/14 05:24:07;;;;;;;1.40;0.73;;;;;;;;;;5069798;28;20024;-60
2024/02/14 05:26:34;;;;;;;2.10;0.95;;;;;;;;;;5068616;28;20021;-61
2024/02/14 05:28:59;;;;;;;2.15;0.88;;;;;;;;;;5078381;28;20033;-62
2024/02/14 05:31:29;;;;;;;1.00;0.80;;;;;;;;;;5078744;28;20027;-59
2024/02/14 05:33:55;;;;;;;1.90;1.23;;;;;;;;;;5067326;28;20507;-61
2024/02/14 05:36:25;;;;;;;4.65;1.20;;;;;;;;;;5062069;28;20033;-61
2024/02/14 05:38:52;;;;;;;2.60;1.15;;;;;;;;;;5056736;28;20024;-61
2024/02/14 05:41:18;;;;;;;3.85;1.23;;;;;;;;;;5065317;28;20062;-61
2024/02/14 05:43:44;;;;;;;2.40;0.85;;;;;;;;;;5066447;28;20028;-63
2024/02/14 05:46:10;;;;;;;3.80;0.95;;;;;;;;;;5064434;28;20032;-63
2024/02/14 05:48:36;;;;;;;3.28;1.10;;;;;;;;;;5068523;28;20046;-60
2024/02/14 05:51:02;;;;;;;1.75;1.00;;;;;;;;;;5062637;28;20029;-64
2024/02/14 05:53:28;;;;;;;1.50;1.02;;;;;;;;;;5068999;28;20450;-62
2024/02/14 05:55:54;;;;;;;5.60;1.25;;;;;;;;;;5071528;28;20044;-61
2024/02/14 05:58:19;;;;;;;2.55;1.20;;;;;;;;;;5064278;28;20028;-63
2024/02/14 06:00:45;;;;;;;1.77;1.38;;;;;;;;;;5072901;28;20017;-63
2024/02/14 06:03:11;;;;;;;3.40;1.45;;;;;;;;;;5064928;28;20393;-63
2024/02/14 06:05:37;;;;;;;6.35;1.50;;;;;;;;;;5061169;28;20478;-63
2024/02/14 06:08:03;;;;;;;3.75;1.63;;;;;;;;;;5067527;28;20601;-60
2024/02/14 06:10:29;;;;;;;4.53;2.08;;;;;;;;;;5063769;28;20100;-63
2024/02/14 06:12:56;;;;;;;2.63;1.60;;;;;;;;;;5067331;28;20107;-63
2024/02/14 06:15:22;;;;;;;7.30;1.95;;;;;;;;;;5067990;28;20029;-62
2024/02/14 06:17:48;;;;;;;6.13;1.95;;;;;;;;;;5066371;28;20437;-63
2024/02/14 06:20:14;;;;;;;7.57;2.70;;;;;;;;;;5043515;28;20021;-63
2024/02/14 06:22:40;;;;;;;6.68;2.58;;;;;;;;;;5067369;28;20028;-63
2024/02/14 06:25:06;;;;;;;6.20;2.20;;;;;;;;;;5064902;28;20032;-62
2024/02/14 06:27:32;;;;;;;6.13;2.30;;;;;;;;;;5063876;28;20044;-63
2024/02/14 06:29:59;;;;;;;6.03;2.03;;;;;;;;;;5065268;28;20044;-62
2024/02/14 06:32:25;;;;;;;4.57;1.70;;;;;;;;;;5061373;28;20565;-62
2024/02/14 06:34:51;;;;;;;3.75;2.10;;;;;;;;;;5064093;28;20091;-60
2024/02/14 06:37:17;;;;;;;7.13;2.05;;;;;;;;;;5066515;28;20475;-61
2024/02/14 06:39:43;;;;;;;6.63;2.30;;;;;;;;;;5065824;28;20458;-63
2024/02/14 06:42:09;;;;;;;4.60;1.92;;;;;;;;;;5062716;28;20593;-63
2024/02/14 06:44:35;;;;;;;3.35;1.35;;;;;;;;;;5068642;28;20562;-61
2024/02/14 06:47:01;;;;;;;6.40;1.73;;;;;;;;;;5068280;28;20035;-64
2024/02/14 06:49:27;;;;;;;3.80;2.33;;;;;;;;;;5068883;28;20039;-63
2024/02/14 06:51:52;;;;;;;3.05;1.83;;;;;;;;;;5067022;28;20017;-62
2024/02/14 06:54:19;;;;;;;2.03;1.55;;;;;;;;;;5062914;28;20506;-62
2024/02/14 06:56:45;;;;;;;3.10;1.45;;;;;;;;;;5067229;28;20411;-62
2024/02/14 06:59:11;;;;;;;2.78;1.38;;;;;;;;;;5068725;28;20482;-61
2024/02/14 07:01:38;;;;;;;5.10;1.42;;;;;;;;;;5071279;28;20025;-62
2024/02/14 07:04:04;;;;;;;2.40;1.00;;;;;;;;;;5066340;28;20362;-63
2024/02/14 07:06:30;;;;;;;4.43;1.17;;;;;;;;;;5068979;28;20028;-61
2024/02/14 07:08:56;;;;;;;1.25;0.70;;;;;;;;;;5066013;28;20398;-61
2024/02/14 07:11:24;;;;;;;1.23;0.70;;;;;;;;;;5069736;28;20029;-62
2024/02/14 07:13:50;;;;;;;1.88;0.80;;;;;;;;;;5064612;28;20029;-62
2024/02/14 07:16:15;;;;;;;1.27;0.70;;;;;;;;;;5065132;28;20054;-62
2024/02/14 07:18:41;;;;;;;4.30;0.90;;;;;;;;;;5061685;28;20072;-60
2024/02/14 07:21:07;;;;;;;4.15;0.90;;;;;;;;;;5059394;28;20511;-61
2024/02/14 07:23:34;;;;;;;2.55;0.93;;;;;;;;;;5065406;28;20025;-62
2024/02/14 07:26:01;;;;;;;3.97;1.15;;;;;;;;;;5063048;28;20533;-60
2024/02/14 07:28:27;;;;;;;2.00;0.90;;;;;;;;;;5063157;28;20044;-62
2024/02/14 07:30:53;;;;;;;1.67;0.80;;;;;;;;;;5071805;28;20025;-62
2024/02/14 07:33:19;;;;;;;1.20;0.73;;;;;;;;;;5069285;28;20134;-63
2024/02/14 07:35:47;;;;;;;0.93;0.77;;;;;;;;;;5065665;28;20112;-60
2024/02/14 07:38:12;;;;;;;2.97;0.60;;;;;;;;;;5070622;28;20020;-62
2024/02/14 07:40:39;;;;;;;3.85;0.70;;;;;;;;;;5069859;28;20097;-62
2024/02/14 07:43:07;;;;;;;0.60;0.60;;;;;;;;;;5067789;28;20104;-62
2024/02/14 07:45:33;;;;;;;2.03;0.75;;;;;;;;;;5066804;28;20104;-62
2024/02/14 07:47:59;;;;;;;2.63;0.88;;;;;;;;;;5066318;28;20389;-60
2024/02/14 07:50:27;;;;;;;3.75;0.75;;;;;;;;;;5069420;28;20034;-62
2024/02/14 07:52:53;;;;;;;1.85;0.88;;;;;;;;;;5073025;28;20081;-62
2024/02/14 07:55:19;;;;;;;2.22;0.90;;;;;;;;;;5065080;28;21113;-62
2024/02/14 07:57:45;;;;;;;2.67;0.80;;;;;;;;;;5063763;28;20032;-63
2024/02/14 08:00:12;;;;;;;1.10;0.90;;;;;;;;;;5066907;28;20020;-62
2024/02/14 08:02:38;;;;;;;3.45;0.88;;;;;;;;;;5069976;28;20024;-62
2024/02/14 08:05:08;;;;;;;1.92;0.80;;;;;;;;;;5071301;28;20028;-62
2024/02/14 08:07:34;;;;;;;1.52;0.75;;;;;;;;;;5069988;28;20685;-60
2024/02/14 08:10:00;;;;;;;1.10;0.80;;;;;;;;;;5066518;28;20037;-61
2024/02/14 08:12:26;;;;;;;1.52;0.70;;;;;;;;;;5069312;28;20544;-62
2024/02/14 08:14:52;;;;;;;3.90;0.70;;;;;;;;;;5072477;28;20017;-62
2024/02/14 08:17:18;;;;;;;1.08;0.60;;;;;;;;;;5074474;28;20037;-62
2024/02/14 08:19:44;;;;;;;2.10;1.05;;;;;;;;;;5078198;28;20017;-62
2024/02/14 08:22:10;;;;;;;0.80;0.63;;;;;;;;;;5070472;28;20028;-60
2024/02/14 08:24:36;;;;;;;2.40;0.82;;;;;;;;;;5070783;28;20111;-62
2024/02/14 08:27:06;;;;;;;3.75;0.70;;;;;;;;;;5071265;28;20060;-58
2024/02/14 08:29:32;;;;;;;4.63;0.60;;;;;;;;;;5068981;28;20017;-62
2024/02/14 08:31:58;;;;;;;2.95;0.90;;;;;;;;;;5069802;28;20024;-62
2024/02/14 08:34:24;;;;;;;4.95;0.82;;;;;;;;;;5068462;28;20025;-63
2024/02/14 08:36:50;;;;;;;1.67;0.73;;;;;;;;;;5071482;28;20069;-63
2024/02/14 08:39:16;;;;;;;0.98;0.68;;;;;;;;;;5071058;28;20516;-62
2024/02/14 08:41:46;;;;;;;1.40;0.70;;;;;;;;;;5072109;28;20499;-62
2024/02/14 08:44:12;;;;;;;1.25;0.90;;;;;;;;;;5070077;28;20028;-62
2024/02/14 08:46:39;;;;;;;1.88;0.95;;;;;;;;;;5065897;28;20498;-62
2024/02/14 08:49:08;;;;;;;2.63;0.93;;;;;;;;;;5071643;28;20025;-62
2024/02/14 08:51:34;;;;;;;2.80;1.05;;;;;;;;;;5072111;28;20029;-60
2024/02/14 08:54:03;;;;;;;1.35;0.60;;;;;;;;;;5077014;28;20036;-59
2024/02/14 08:56:28;;;;;;;3.35;1.30;;;;;;;;;;5068955;28;20052;-62
2024/02/14 08:58:54;;;;;;;2.28;1.05;;;;;;;;;;5069447;28;20075;-61
2024/02/14 09:01:21;;;;;;;3.05;0.70;;;;;;;;;;5074916;28;20078;-62
2024/02/14 09:03:47;;;;;;;1.35;0.95;;;;;;;;;;5071474;28;20017;-61
2024/02/14 09:06:19;;;;;;;1.17;0.90;;;;;;;;;;5079733;28;20039;-59
2024/02/14 09:08:45;;;;;;;6.15;0.77;;;;;;;;;;5066959;28;20039;-59
2024/02/14 09:11:12;;;;;;;2.00;1.00;;;;;;;;;;5071391;28;20037;-61
2024/02/14 09:13:40;;;;;;;2.80;1.10;;;;;;;;;;5067621;28;20120;-60
2024/02/14 09:16:06;;;;;;;2.15;1.08;;;;;;;;;;5074957;28;20103;-62
2024/02/14 09:18:32;;;;;;;3.97;1.10;;;;;;;;;;5073586;28;20047;-61
2024/02/14 09:20:58;;;;;;;3.80;0.70;;;;;;;;;;5064842;28;20021;-62
2024/02/14 09:23:24;;;;;;;6.38;0.85;;;;;;;;;;5064592;28;20078;-60
2024/02/14 09:25:51;;;;;;;2.13;0.90;;;;;;;;;;5070391;28;20449;-60
2024/02/14 09:28:17;;;;;;;3.08;1.00;;;;;;;;;;5074162;28;20036;-61
2024/02/14 09:30:42;;;;;;;8.30;2.15;;;;;;;;;;5071213;28;20024;-59
2024/02/14 09:33:08;;;;;;;3.50;0.82;;;;;;;;;;5070754;28;20032;-61
2024/02/14 09:35:39;;;;;;;2.78;1.17;;;;;;;;;;5069323;28;20513;-61
2024/02/14 09:38:05;;;;;;;2.33;0.70;;;;;;;;;;5066341;28;20117;-60
2024/02/14 09:40:31;;;;;;;0.63;0.63;;;;;;;;;;5070002;28;20386;-61
2024/02/14 09:43:01;;;;;;;1.52;0.93;;;;;;;;;;5071080;28;20086;-60
2024/02/14 09:45:28;;;;;;;3.75;0.93;;;;;;;;;;5069842;28;20444;-61
2024/02/14 09:47:55;;;;;;;6.22;1.20;;;;;;;;;;5067508;28;20165;-60
2024/02/14 09:50:21;;;;;;;3.05;1.13;;;;;;;;;;5067509;28;20406;-59
2024/02/14 09:52:50;;;;;;;2.22;0.85;;;;;;;;;;5070471;28;20029;-62
2024/02/14 09:55:16;;;;;;;2.20;0.90;;;;;;;;;;5069391;28;20032;-59
2024/02/14 09:57:42;;;;;;;5.40;0.70;;;;;;;;;;5068224;28;20025;-59
2024/02/14 10:00:14;;;;;;;2.80;0.82;;;;;;;;;;5073208;28;20040;-61
2024/02/14 10:02:40;;;;;;;1.70;0.70;;;;;;;;;;5068662;28;20024;-61
2024/02/14 10:05:06;;;;;;;2.78;0.85;;;;;;;;;;5072462;28;20405;-61
2024/02/14 10:07:40;;;;;;;1.33;0.60;;;;;;;;;;5071428;28;20366;-60
2024/02/14 10:10:07;;;;;;;2.95;0.70;;;;;;;;;;5069974;28;20107;-61
2024/02/14 10:12:33;;;;;;;2.10;0.65;;;;;;;;;;5070982;28;20039;-61
2024/02/14 10:14:59;;;;;;;1.17;0.68;;;;;;;;;;5072699;28;20025;-63
2024/02/14 10:17:26;;;;;;;0.95;0.82;;;;;;;;;;5074161;28;20059;-63
2024/02/14 10:19:56;;;;;;;2.60;0.90;;;;;;;;;;5070768;28;20379;-63
2024/02/14 10:22:22;;;;;;;7.95;1.00;;;;;;;;;;5078765;28;20024;-62
2024/02/14 10:24:48;;;;;;;3.47;0.75;;;;;;;;;;5065633;28;20033;-63
2024/02/14 10:27:15;;;;;;;4.10;0.70;;;;;;;;;;5063947;28;20127;-62
2024/02/14 10:29:43;;;;;;;1.30;0.77;;;;;;;;;;5064194;28;20074;-62
2024/02/14 10:32:09;;;;;;;7.40;0.85;;;;;;;;;;5065526;28;20475;-63
2024/02/14 10:34:36;;;;;;;3.10;0.70;;;;;;;;;;5065488;28;20032;-61
2024/02/14 10:37:02;;;;;;;4.93;1.02;;;;;;;;;;5065842;28;20035;-62
2024/02/14 10:39:30;;;;;;;3.40;0.85;;;;;;;;;;5067768;28;20036;-63
2024/02/14 10:41:56;;;;;;;2.25;0.77;;;;;;;;;;5076345;28;20470;-63
2024/02/14 10:44:22;;;;;;;4.05;0.90;;;;;;;;;;5064878;28;20091;-62
2024/02/14 10:46:50;;;;;;;2.97;0.75;;;;;;;;;;5059526;28;20025;-59
2024/02/14 10:49:16;;;;;;;2.72;1.05;;;;;;;;;;5065986;28;20047;-61
2024/02/14 10:51:44;;;;;;;2.65;0.80;;;;;;;;;;5067252;28;20031;-62
2024/02/14 10:54:13;;;;;;;3.53;0.80;;;;;;;;;;5061088;28;20020;-60
2024/02/14 10:56:42;;;;;;;2.47;0.63;;;;;;;;;;5056053;28;20031;-62
2024/02/14 10:59:09;;;;;;;4.10;0.80;;;;;;;;;;5069161;28;20351;-62
2024/02/14 11:01:35;;;;;;;1.70;0.80;;;;;;;;;;5066908;28;20020;-61
2024/02/14 11:04:04;;;;;;;3.50;0.95;;;;;;;;;;5069626;28;20552;-57
2024/02/14 11:06:30;;;;;;;3.00;0.77;;;;;;;;;;5059357;28;20021;-61
2024/02/14 11:09:07;;;;;;;7.15;1.00;;;;;;;;;;5061494;28;20086;-60
2024/02/14 11:11:33;;;;;;;3.47;0.70;;;;;;;;;;5059195;28;20034;-63
2024/02/14 11:13:59;;;;;;;2.63;0.93;;;;;;;;;;5064081;28;20082;-62
2024/02/14 11:16:29;;;;;;;2.88;0.80;;;;;;;;;;5058118;28;20494;-62
2024/02/14 11:19:07;;;;;;;2.45;0.70;;;;;;;;;;5066665;28;20525;-62
2024/02/14 11:21:36;;;;;;;2.13;0.70;;;;;;;;;;5069135;28;20028;-62
2024/02/14 11:24:07;;;;;;;4.68;1.42;;;;;;;;;;5065053;28;20055;-58
2024/02/14 11:26:54;;;;;;;4.88;0.70;;;;;;;;;;5064666;28;20016;-61
2024/02/14 11:29:20;;;;;;;6.18;1.10;;;;;;;;;;5067251;28;20024;-60
2024/02/14 11:31:47;;;;;;;2.85;0.70;;;;;;;;;;5063977;28;20024;-62
2024/02/14 11:34:14;;;;;;;2.08;0.70;;;;;;;;;;5067738;28;20065;-62
2024/02/14 11:36:42;;;;;;;1.92;0.70;;;;;;;;;;5063101;28;20035;-63
2024/02/14 11:39:08;;;;;;;7.95;0.60;;;;;;;;;;5071078;28;20024;-62
2024/02/14 11:41:34;;;;;;;4.75;0.70;;;;;;;;;;5070171;28;20027;-63
2024/02/14 11:44:04;;;;;;;3.30;0.70;;;;;;;;;;5067006;28;20110;-63
2024/02/14 11:46:37;;;;;;;0.60;0.50;;;;;;;;;;5063807;28;20025;-62
2024/02/14 11:49:05;;;;;;;0.50;0.40;;;;;;;;;;5066577;28;20024;-61
2024/02/14 11:51:32;;;;;;;1.67;0.73;;;;;;;;;;5066881;28;20028;-61
2024/02/14 11:54:04;;;;;;;3.38;0.50;;;;;;;;;;5065336;28;20087;-62
2024/02/14 11:56:33;;;;;;;2.53;0.70;;;;;;;;;;5068996;28;20040;-63
2024/02/14 11:59:02;;;;;;;1.25;0.50;;;;;;;;;;5063731;28;20063;-61
2024/02/14 12:01:28;;;;;;;2.35;0.60;;;;;;;;;;5065688;28;20013;-62
2024/02/14 12:03:54;;;;;;;1.65;0.47;;;;;;;;;;5073908;28;20056;-62
2024/02/14 12:06:20;;;;;;;1.13;0.55;;;;;;;;;;5077026;28;20478;-63
2024/02/14 12:08:46;;;;;;;1.75;0.57;;;;;;;;;;5066786;28;20021;-61
2024/02/14 12:11:12;;;;;;;7.18;0.63;;;;;;;;;;5064187;28;20025;-62
2024/02/14 12:13:43;;;;;;;0.85;0.60;;;;;;;;;;5068611;28;20033;-63
2024/02/14 12:16:09;;;;;;;0.68;0.50;;;;;;;;;;5063617;28;20053;-61
2024/02/14 12:18:35;;;;;;;1.63;0.50;;;;;;;;;;5061166;28;20486;-62
2024/02/14 12:21:07;;;;;;;1.10;0.60;;;;;;;;;;5073421;28;20033;-60
2024/02/14 12:23:33;;;;;;;1.88;0.52;;;;;;;;;;5064122;28;20024;-62
2024/02/14 12:26:02;;;;;;;0.40;0.40;;;;;;;;;;5065040;28;20029;-61
2024/02/14 12:28:32;;;;;;;0.40;0.40;;;;;;;;;;5066742;28;20039;-62
2024/02/14 12:30:59;;;;;;;0.40;0.40;;;;;;;;;;5066967;28;20036;-61
2024/02/14 12:33:25;;;;;;;0.75;0.40;;;;;;;;;;5066415;28;20024;-62
2024/02/14 12:35:53;;;;;;;0.60;0.40;;;;;;;;;;5070901;28;20086;-61
2024/02/14 12:38:20;;;;;;;0.85;0.40;;;;;;;;;;5063858;28;20017;-60
2024/02/14 12:40:46;;;;;;;2.83;0.50;;;;;;;;;;5058883;28;20078;-61
2024/02/14 12:43:12;;;;;;;0.40;0.40;;;;;;;;;;5068565;28;20031;-63
2024/02/14 12:45:39;;;;;;;2.50;0.40;;;;;;;;;;5063728;28;20028;-62
2024/02/14 12:48:05;;;;;;;0.93;0.60;;;;;;;;;;5069617;28;20506;-62
2024/02/14 12:50:32;;;;;;;1.80;0.40;;;;;;;;;;5066819;28;20029;-62
2024/02/14 12:52:58;;;;;;;1.00;0.60;;;;;;;;;;5066489;28;20032;-63
2024/02/14 12:55:25;;;;;;;0.98;0.30;;;;;;;;;;5065967;28;20024;-62
2024/02/14 12:57:52;;;;;;;1.25;0.50;;;;;;;;;;5062546;28;20581;-62
2024/02/14 13:00:18;;;;;;;1.10;0.50;;;;;;;;;;5061821;28;20150;-60
2024/02/14 13:02:44;;;;;;;0.40;0.40;;;;;;;;;;5063314;28;20032;-62
2024/02/14 13:05:10;;;;;;;0.70;0.40;;;;;;;;;;5066657;28;20028;-62
2024/02/14 13:07:36;;;;;;;2.72;0.60;;;;;;;;;;5072528;28;20129;-62
2024/02/14 13:10:03;;;;;;;1.67;0.50;;;;;;;;;;5066828;28;20035;-60
2024/02/14 13:12:29;;;;;;;0.98;0.50;;;;;;;;;;5068506;28;20028;-62
2024/02/14 13:14:55;;;;;;;0.30;0.30;;;;;;;;;;5065431;28;20395;-61
2024/02/14 13:17:21;;;;;;;0.60;0.40;;;;;;;;;;5070109;28;20048;-60
2024/02/14 13:19:49;;;;;;;5.63;0.40;;;;;;;;;;5064725;28;20056;-60
2024/02/14 13:22:15;;;;;;;1.25;0.47;;;;;;;;;;5060660;28;20094;-62
2024/02/14 13:24:41;;;;;;;0.30;0.30;;;;;;;;;;5064453;28;20025;-66
2024/02/14 13:27:07;;;;;;;0.63;0.38;;;;;;;;;;5070855;28;20024;-61
2024/02/14 13:29:33;;;;;;;0.65;0.40;;;;;;;;;;5066113;28;20029;-61
2024/02/14 13:32:01;;;;;;;0.50;0.50;;;;;;;;;;5069076;28;20090;-61
2024/02/14 13:34:27;;;;;;;2.13;0.50;;;;;;;;;;5074183;28;20064;-60
2024/02/14 13:36:53;;;;;;;0.43;0.40;;;;;;;;;;5070444;28;20060;-60
2024/02/14 13:39:19;;;;;;;1.20;0.47;;;;;;;;;;5072265;28;20074;-61
2024/02/14 13:41:45;;;;;;;2.72;0.50;;;;;;;;;;5072607;28;21047;-61
2024/02/14 13:44:12;;;;;;;0.70;0.50;;;;;;;;;;5070839;28;20127;-61
2024/02/14 13:46:38;;;;;;;1.38;0.50;;;;;;;;;;5069078;28;20079;-63
2024/02/14 13:49:05;;;;;;;1.35;0.70;;;;;;;;;;5063899;28;20555;-60
2024/02/14 13:51:32;;;;;;;3.28;0.60;;;;;;;;;;5067288;28;20099;-59
2024/02/14 13:53:58;;;;;;;2.00;0.52;;;;;;;;;;5067244;28;20414;-58
2024/02/14 13:56:24;;;;;;;1.95;0.50;;;;;;;;;;5063856;28;20037;-62
2024/02/14 13:58:50;;;;;;;0.55;0.50;;;;;;;;;;5064905;28;20032;-62
2024/02/14 14:01:17;;;;;;;1.42;0.40;;;;;;;;;;5059623;28;20698;-62
2024/02/14 14:03:43;;;;;;;1.58;0.50;;;;;;;;;;5064527;28;20133;-64
2024/02/14 14:06:09;;;;;;;1.85;0.50;;;;;;;;;;5063853;28;20105;-61
2024/02/14 14:08:35;;;;;;;2.78;0.57;;;;;;;;;;5063989;28;20482;-63
2024/02/14 14:11:03;;;;;;;1.38;0.50;;;;;;;;;;5069384;28;20021;-64
2024/02/14 14:13:30;;;;;;;3.58;0.80;;;;;;;;;;5068554;28;20033;-62
2024/02/14 14:15:57;;;;;;;2.88;0.60;;;;;;;;;;5060516;28;20590;-61
2024/02/14 14:18:26;;;;;;;1.40;1.02;;;;;;;;;;5064406;28;20052;-61
2024/02/14 14:20:55;;;;;;;1.48;1.02;;;;;;;;;;5064247;28;20028;-61
2024/02/14 14:23:21;;;;;;;2.38;0.70;;;;;;;;;;5064079;28;20436;-61
2024/02/14 14:25:47;;;;;;;1.33;0.70;;;;;;;;;;5064604;28;20102;-61
2024/02/14 14:28:14;;;;;;;1.30;0.75;;;;;;;;;;5064535;28;20036;-61
2024/02/14 14:30:40;;;;;;;1.52;0.70;;;;;;;;;;5060579;28;20747;-63
2024/02/14 14:33:08;;;;;;;2.00;0.70;;;;;;;;;;5066207;28;20040;-61
2024/02/14 14:35:35;;;;;;;2.13;0.75;;;;;;;;;;5062926;28;20039;-62
2024/02/14 14:38:02;;;;;;;2.88;0.90;;;;;;;;;;5061978;28;20040;-61
2024/02/14 14:40:28;;;;;;;3.40;1.27;;;;;;;;;;5065003;28;20041;-60